createdAt,value
2023-02-05T00:02:22.034Z,3.50
2023-02-05T00:04:50.362Z,3.35
2023-02-05T00:07:18.603Z,3.70
2023-02-05T00:09:48.351Z,3.55
2023-02-05T00:12:16.740Z,3.42
2023-02-05T00:14:46.265Z,2.90
2023-02-05T00:17:14.505Z,3.20
2023-02-05T00:19:42.795Z,3.78
2023-02-05T00:22:11.037Z,3.13
2023-02-05T00:24:39.670Z,2.70
2023-02-05T00:27:10.295Z,3.10
2023-02-05T00:29:38.637Z,2.75
2023-02-05T00:32:07.181Z,3.30
2023-02-05T00:34:35.594Z,2.80
2023-02-05T00:37:03.742Z,2.58
2023-02-05T00:39:31.993Z,3.40
2023-02-05T00:42:00.206Z,3.60
2023-02-05T00:44:29.809Z,2.83
2023-02-05T00:46:58.025Z,3.17
2023-02-05T00:49:26.294Z,3.17
2023-02-05T00:51:54.572Z,3.30
2023-02-05T00:54:22.796Z,2.28
2023-02-05T00:56:50.929Z,3.35
2023-02-05T00:59:19.177Z,3.28
2023-02-05T01:01:48.771Z,3.35
2023-02-05T01:04:17.078Z,3.30
2023-02-05T01:06:45.272Z,3.22
2023-02-05T01:09:13.449Z,3.65
2023-02-05T01:11:41.710Z,3.20
2023-02-05T01:14:09.868Z,3.10
2023-02-05T01:16:38.075Z,3.40
2023-02-05T01:19:07.839Z,3.13
2023-02-05T01:21:36.492Z,3.45
2023-02-05T01:24:05.224Z,2.95
2023-02-05T01:26:33.953Z,3.10
2023-02-05T01:29:02.594Z,3.75
2023-02-05T01:31:31.445Z,3.25
2023-02-05T01:33:59.819Z,3.65
2023-02-05T01:36:30.113Z,3.70
2023-02-05T01:38:58.351Z,3.50
2023-02-05T01:41:26.647Z,3.38
2023-02-05T01:44:09.791Z,3.75
2023-02-05T01:46:40.127Z,2.92
2023-02-05T01:49:11.028Z,3.28
2023-02-05T01:51:41.141Z,3.80
2023-02-05T01:54:09.952Z,4.18
2023-02-05T01:56:41.680Z,3.97
2023-02-05T01:59:13.022Z,3.10
2023-02-05T02:01:43.081Z,3.25
2023-02-05T02:04:12.797Z,4.50
2023-02-05T02:06:42.564Z,3.30
2023-02-05T02:09:11.324Z,3.03
2023-02-05T02:11:41.890Z,4.13
2023-02-05T02:14:12.125Z,3.08
2023-02-05T02:16:41.824Z,3.80
2023-02-05T02:19:27.505Z,3.47
2023-02-05T02:22:23.918Z,3.60
2023-02-05T02:25:45.672Z,3.50
2023-02-05T02:28:21.540Z,3.28
2023-02-05T02:30:57.744Z,3.17
2023-02-05T02:33:32.983Z,3.42
2023-02-05T02:36:07.767Z,3.97
2023-02-05T02:38:41.713Z,3.60
2023-02-05T02:41:15.865Z,3.38
2023-02-05T02:43:51.342Z,3.83
2023-02-05T02:46:23.322Z,3.40
2023-02-05T02:48:54.108Z,4.50
2023-02-05T02:51:24.664Z,3.85
2023-02-05T02:53:57.845Z,3.92
2023-02-05T02:56:28.973Z,3.40
2023-02-05T02:59:04.333Z,4.82
2023-02-05T03:01:35.575Z,3.35
2023-02-05T03:04:09.692Z,4.90
2023-02-05T03:06:40.960Z,4.07
2023-02-05T03:09:14.480Z,3.83
2023-02-05T03:11:42.917Z,3.30
2023-02-05T03:14:13.047Z,3.60
2023-02-05T03:16:41.462Z,4.13
2023-02-05T03:19:10.635Z,3.38
2023-02-05T03:21:43.128Z,3.80
2023-02-05T03:24:11.762Z,3.40
2023-02-05T03:26:40.185Z,4.07
2023-02-05T03:29:27.177Z,3.35
2023-02-05T03:32:11.060Z,4.07
2023-02-05T03:34:52.894Z,3.53
2023-02-05T03:37:34.000Z,3.92
2023-02-05T03:40:17.429Z,3.67
2023-02-05T03:42:54.864Z,4.35
2023-02-05T03:45:35.086Z,3.67
2023-02-05T03:48:17.089Z,3.80
2023-02-05T03:50:54.069Z,3.58
2023-02-05T03:53:30.162Z,4.40
2023-02-05T03:56:06.215Z,3.05
2023-02-05T03:58:39.337Z,4.50
2023-02-05T04:01:12.325Z,3.70
2023-02-05T04:03:42.266Z,4.30
2023-02-05T04:06:11.280Z,3.63
2023-02-05T04:08:39.692Z,4.15
2023-02-05T04:11:09.571Z,4.45
2023-02-05T04:13:38.325Z,4.13
2023-02-05T04:16:10.460Z,3.85
2023-02-05T04:18:38.962Z,3.85
2023-02-05T04:21:07.210Z,3.58
2023-02-05T04:23:39.002Z,4.60
2023-02-05T04:26:08.133Z,3.75
2023-02-05T04:28:42.994Z,4.10
2023-02-05T04:31:14.050Z,3.22
2023-02-05T04:33:44.055Z,4.35
2023-02-05T04:36:15.414Z,3.58
2023-02-05T04:38:44.364Z,3.55
2023-02-05T04:41:12.671Z,3.90
2023-02-05T04:43:40.973Z,4.22
2023-02-05T04:46:10.453Z,3.30
2023-02-05T04:48:40.607Z,3.30
2023-02-05T04:51:10.121Z,3.67
2023-02-05T04:53:39.220Z,3.95
2023-02-05T04:56:09.543Z,3.50
2023-02-05T04:58:37.860Z,3.72
2023-02-05T05:01:06.222Z,3.92
2023-02-05T05:03:34.505Z,4.03
2023-02-05T05:06:06.764Z,3.90
2023-02-05T05:08:35.253Z,3.45
2023-02-05T05:11:08.316Z,3.10
2023-02-05T05:13:37.324Z,4.10
2023-02-05T05:16:07.142Z,4.55
2023-02-05T05:18:36.104Z,3.92
2023-02-05T05:21:06.685Z,3.60
2023-02-05T05:23:35.730Z,3.58
2023-02-05T05:26:07.009Z,3.80
2023-02-05T05:28:35.978Z,5.53
2023-02-05T05:31:08.826Z,3.88
2023-02-05T05:33:37.508Z,4.35
2023-02-05T05:36:08.555Z,4.53
2023-02-05T05:38:36.952Z,5.38
2023-02-05T05:41:37.879Z,4.53
2023-02-05T05:44:06.488Z,4.97
2023-02-05T05:46:34.802Z,4.82
2023-02-05T05:49:04.249Z,4.32
2023-02-05T05:51:34.065Z,5.00
2023-02-05T05:54:02.340Z,4.60
2023-02-05T05:56:30.537Z,4.40
2023-02-05T05:58:58.836Z,4.32
2023-02-05T06:01:27.020Z,5.30
2023-02-05T06:03:55.308Z,4.25
2023-02-05T06:06:23.633Z,4.88
2023-02-05T06:08:53.347Z,4.63
2023-02-05T06:11:22.128Z,5.40
2023-02-05T06:13:50.453Z,5.28
2023-02-05T06:16:18.647Z,4.95
2023-02-05T06:18:47.001Z,5.30
2023-02-05T06:21:15.251Z,5.00
2023-02-05T06:23:43.537Z,5.25
2023-02-05T06:26:13.234Z,5.38
2023-02-05T06:28:41.473Z,6.10
2023-02-05T06:31:09.819Z,6.07
2023-02-05T06:33:38.069Z,6.63
2023-02-05T06:36:07.276Z,5.82
2023-02-05T06:38:35.609Z,5.30
2023-02-05T06:41:03.804Z,6.07
2023-02-05T06:43:33.384Z,5.07
2023-02-05T06:46:01.741Z,5.45
2023-02-05T06:48:30.040Z,5.15
2023-02-05T06:50:58.256Z,4.88
2023-02-05T06:53:26.585Z,5.10
2023-02-05T06:55:58.527Z,4.82
2023-02-05T06:58:26.756Z,5.32
2023-02-05T07:00:56.323Z,5.43
2023-02-05T07:03:24.582Z,4.95
2023-02-05T07:05:52.794Z,5.72
2023-02-05T07:08:21.057Z,4.95
2023-02-05T07:10:49.527Z,4.88
2023-02-05T07:13:17.819Z,4.60
2023-02-05T07:15:47.344Z,4.90
2023-02-05T07:18:17.336Z,4.00
2023-02-05T07:20:45.481Z,5.90
2023-02-05T07:23:13.642Z,4.55
2023-02-05T07:25:42.314Z,5.50
2023-02-05T07:28:10.881Z,5.60
2023-02-05T07:30:39.348Z,4.22
2023-02-05T07:33:07.652Z,5.05
2023-02-05T07:35:39.420Z,4.60
2023-02-05T07:38:07.570Z,4.20
2023-02-05T07:40:35.947Z,5.45
2023-02-05T07:43:04.166Z,4.95
2023-02-05T07:45:32.602Z,6.47
2023-02-05T07:48:01.038Z,5.80
2023-02-05T07:50:29.282Z,5.10
2023-02-05T07:52:58.879Z,6.00
2023-02-05T07:55:27.359Z,8.43
2023-02-05T07:57:55.560Z,7.53
2023-02-05T08:00:24.965Z,5.75
2023-02-05T08:02:53.128Z,5.07
2023-02-05T08:05:21.365Z,6.18
2023-02-05T08:07:49.958Z,7.20
2023-02-05T08:10:19.698Z,6.32
2023-02-05T08:12:48.180Z,5.10
2023-02-05T08:15:16.651Z,6.00
2023-02-05T08:17:44.980Z,6.03
2023-02-05T08:20:13.984Z,6.00
2023-02-05T08:22:45.304Z,5.45
2023-02-05T08:25:15.983Z,6.13
2023-02-05T08:27:46.252Z,9.20
2023-02-05T08:30:17.916Z,7.43
2023-02-05T08:32:48.610Z,4.60
2023-02-05T08:35:17.006Z,4.18
2023-02-05T08:37:45.392Z,3.75
2023-02-05T08:40:14.006Z,3.65
2023-02-05T08:42:42.274Z,5.07
2023-02-05T08:45:12.135Z,3.42
2023-02-05T08:47:40.372Z,2.78
2023-02-05T08:50:09.130Z,3.15
2023-02-05T08:52:37.409Z,3.22
2023-02-05T08:55:06.366Z,2.35
2023-02-05T08:57:34.598Z,2.05
2023-02-05T09:00:02.908Z,2.53
2023-02-05T09:02:32.846Z,1.95
2023-02-05T09:05:08.787Z,1.55
2023-02-05T09:07:37.955Z,2.10
2023-02-05T09:10:07.847Z,2.00
2023-02-05T09:12:36.170Z,1.95
2023-02-05T09:15:04.637Z,2.33
2023-02-05T09:17:34.299Z,1.77
2023-02-05T09:20:02.549Z,2.08
2023-02-05T09:22:30.840Z,2.25
2023-02-05T09:24:59.027Z,2.22
2023-02-05T09:27:27.306Z,2.10
2023-02-05T09:29:55.488Z,2.22
2023-02-05T09:32:23.891Z,1.83
2023-02-05T09:34:53.508Z,1.80
2023-02-05T09:37:22.593Z,2.35
2023-02-05T09:42:46.484Z,1.88
2023-02-05T09:45:34.832Z,2.17
2023-02-05T09:48:31.607Z,1.90
2023-02-05T09:51:02.200Z,1.67
2023-02-05T09:53:36.686Z,2.42
2023-02-05T09:56:08.026Z,1.67
2023-02-05T09:58:43.245Z,1.98
2023-02-05T10:01:19.191Z,1.58
2023-02-05T10:03:49.843Z,2.05
2023-02-05T10:06:38.874Z,1.35
2023-02-05T10:09:19.682Z,2.05
2023-02-05T10:11:52.460Z,1.92
2023-02-05T10:14:34.424Z,1.95
2023-02-05T10:17:21.744Z,2.10
2023-02-05T10:20:15.058Z,1.70
2023-02-05T10:22:55.934Z,2.58
2023-02-05T10:25:45.790Z,1.63
2023-02-05T10:28:30.120Z,1.70
2023-02-05T10:31:05.725Z,1.45
2023-02-05T10:33:46.954Z,1.35
2023-02-05T10:36:16.078Z,1.60
2023-02-05T10:38:47.533Z,2.10
2023-02-05T10:41:23.122Z,1.85
2023-02-05T10:43:57.876Z,1.42
2023-02-05T10:46:33.593Z,1.50
2023-02-05T10:49:09.925Z,2.15
2023-02-05T10:51:42.344Z,1.58
2023-02-05T10:54:21.538Z,2.38
2023-02-05T10:56:50.073Z,1.90
2023-02-05T10:59:23.840Z,1.90
2023-02-05T11:01:52.854Z,1.70
2023-02-05T11:04:43.461Z,2.00
2023-02-05T11:07:14.410Z,2.00
2023-02-05T11:09:44.551Z,1.85
2023-02-05T11:12:24.017Z,1.90
2023-02-05T11:14:58.673Z,2.30
2023-02-05T11:17:33.231Z,3.63
2023-02-05T11:20:05.770Z,2.00
2023-02-05T11:22:36.307Z,2.58
2023-02-05T11:25:18.674Z,2.17
2023-02-05T11:27:53.734Z,2.25
2023-02-05T11:30:50.085Z,1.48
2023-02-05T11:33:32.389Z,1.50
2023-02-05T11:36:03.382Z,1.67
2023-02-05T11:38:39.946Z,1.50
2023-02-05T11:41:11.443Z,2.20
2023-02-05T11:43:42.074Z,1.90
2023-02-05T11:46:16.096Z,1.88
2023-02-05T11:48:47.333Z,1.42
2023-02-05T11:51:28.846Z,2.20
2023-02-05T11:54:00.969Z,2.10
2023-02-05T11:56:30.561Z,1.88
2023-02-05T11:59:04.017Z,1.80
2023-02-05T12:01:34.928Z,2.42
2023-02-05T12:04:05.475Z,3.05
2023-02-05T12:06:41.542Z,2.25
2023-02-05T12:09:12.640Z,2.17
2023-02-05T12:12:03.801Z,2.25
2023-02-05T12:14:54.869Z,2.30
2023-02-05T12:17:35.286Z,1.80
2023-02-05T12:20:15.740Z,2.40
2023-02-05T12:23:08.548Z,2.47
2023-02-05T12:25:47.812Z,5.15
2023-02-05T12:28:29.226Z,4.90
2023-02-05T12:31:05.817Z,4.38
2023-02-05T12:34:02.825Z,4.45
2023-02-05T12:36:46.790Z,4.40
2023-02-05T12:39:29.464Z,4.70
2023-02-05T12:42:07.629Z,5.57
2023-02-05T12:44:48.953Z,4.28
2023-02-05T12:47:37.050Z,4.05
2023-02-05T12:50:16.528Z,4.38
2023-02-05T12:53:01.367Z,4.10
2023-02-05T12:55:46.456Z,5.53
2023-02-05T12:58:16.950Z,5.93
2023-02-05T13:00:52.136Z,5.25
2023-02-05T13:03:27.744Z,4.97
2023-02-05T13:06:01.859Z,3.75
2023-02-05T13:08:39.410Z,3.20
2023-02-05T13:11:13.001Z,2.80
2023-02-05T13:13:51.050Z,3.05
2023-02-05T13:16:23.393Z,3.95
2023-02-05T13:19:05.949Z,3.80
2023-02-05T13:21:51.935Z,3.97
2023-02-05T13:24:45.089Z,3.35
2023-02-05T13:27:40.098Z,2.72
2023-02-05T13:30:16.225Z,2.78
2023-02-05T13:32:51.841Z,2.72
2023-02-05T13:35:22.662Z,2.38
2023-02-05T13:38:21.434Z,3.28
2023-02-05T13:41:08.956Z,3.70
2023-02-05T13:44:09.423Z,5.68
2023-02-05T13:47:09.742Z,6.70
2023-02-05T13:50:07.055Z,7.85
2023-02-05T13:53:04.835Z,7.80
2023-02-05T13:55:48.751Z,8.10
2023-02-05T13:58:24.293Z,7.90
2023-02-05T14:00:58.139Z,7.95
2023-02-05T14:03:35.082Z,7.55
2023-02-05T14:06:22.660Z,7.30
2023-02-05T14:08:53.072Z,6.93
2023-02-05T14:11:23.803Z,5.65
2023-02-05T14:14:21.367Z,7.15
2023-02-05T14:16:51.431Z,7.03
2023-02-05T14:19:24.138Z,6.40
2023-02-05T14:22:13.990Z,5.35
2023-02-05T14:24:46.090Z,6.43
2023-02-05T14:27:56.855Z,6.20
2023-02-05T14:30:38.513Z,7.90
2023-02-05T14:33:30.073Z,8.30
2023-02-05T14:35:59.828Z,7.32
2023-02-05T14:38:34.108Z,9.07
2023-02-05T14:41:08.567Z,11.73
2023-02-05T14:43:39.512Z,9.95
2023-02-05T14:46:21.543Z,13.35
2023-02-05T14:48:49.933Z,7.90
2023-02-05T14:51:26.062Z,7.80
2023-02-05T14:53:59.850Z,21.92
2023-02-05T14:56:34.112Z,10.00
2023-02-05T14:59:07.368Z,7.00
2023-02-05T15:01:47.120Z,10.00
2023-02-05T15:04:30.509Z,9.80
2023-02-05T15:07:02.379Z,8.30
2023-02-05T15:09:42.564Z,7.55
2023-02-05T15:12:33.753Z,7.43
2023-02-05T15:15:28.012Z,8.68
2023-02-05T15:17:59.151Z,8.88
2023-02-05T15:20:32.465Z,9.20
2023-02-05T15:23:31.426Z,11.93
2023-02-05T15:26:04.081Z,12.95
2023-02-05T15:28:36.884Z,7.40
2023-02-05T15:31:18.493Z,11.57
2023-02-05T15:33:57.534Z,9.48
2023-02-05T15:36:35.558Z,6.50
2023-02-05T15:39:15.518Z,8.75
2023-02-05T15:41:46.499Z,6.00
2023-02-05T15:44:23.759Z,6.18
2023-02-05T15:46:52.615Z,10.48
2023-02-05T15:49:26.510Z,9.57
2023-02-05T15:51:54.770Z,7.05
2023-02-05T15:54:23.758Z,8.27
2023-02-05T15:56:54.883Z,10.20
2023-02-05T15:59:27.770Z,8.43
2023-02-05T16:02:03.638Z,7.63
2023-02-05T16:04:33.934Z,9.68
2023-02-05T16:07:03.510Z,8.65
2023-02-05T16:09:32.618Z,9.50
2023-02-05T16:12:14.660Z,7.78
2023-02-05T16:14:43.825Z,7.55
2023-02-05T16:17:18.343Z,10.15
2023-02-05T16:19:50.880Z,10.05
2023-02-05T16:22:30.390Z,7.68
2023-02-05T16:25:02.539Z,6.47
2023-02-05T16:27:36.806Z,7.15
2023-02-05T16:30:13.312Z,8.13
2023-02-05T16:32:43.419Z,10.80
2023-02-05T16:35:23.054Z,10.30
2023-02-05T16:37:52.418Z,6.18
2023-02-05T16:40:35.845Z,7.30
2023-02-05T16:43:21.932Z,10.27
2023-02-05T16:46:22.374Z,9.30
2023-02-05T16:48:51.729Z,8.48
2023-02-05T16:51:35.572Z,6.95
2023-02-05T16:54:26.247Z,8.07
2023-02-05T16:56:59.351Z,6.88
2023-02-05T16:59:33.010Z,7.38
2023-02-05T17:02:03.262Z,8.32
2023-02-05T17:04:35.760Z,11.77
2023-02-05T17:07:07.005Z,9.30
2023-02-05T17:09:38.246Z,10.27
2023-02-05T17:12:25.854Z,9.02
2023-02-05T17:14:58.555Z,7.72
2023-02-05T17:17:27.814Z,9.10
2023-02-05T17:20:08.732Z,8.50
2023-02-05T17:22:37.498Z,7.82
2023-02-05T17:25:06.166Z,9.38
2023-02-05T17:27:38.481Z,9.00
2023-02-05T17:30:18.979Z,8.45
2023-02-05T17:32:47.968Z,9.07
2023-02-05T17:35:16.954Z,8.02
2023-02-05T17:37:45.373Z,9.30
2023-02-05T17:40:14.009Z,11.23
2023-02-05T17:42:44.239Z,9.55
2023-02-05T17:45:19.498Z,10.73
2023-02-05T17:47:48.393Z,10.88
2023-02-05T17:50:17.693Z,9.95
2023-02-05T17:52:46.654Z,10.07
2023-02-05T17:55:16.963Z,11.40
2023-02-05T17:57:45.552Z,9.13
2023-02-05T18:00:18.343Z,9.38
2023-02-05T18:02:46.646Z,11.65
2023-02-05T18:05:14.921Z,9.10
2023-02-05T18:07:46.543Z,9.65
2023-02-05T18:10:16.230Z,7.75
2023-02-05T18:12:44.417Z,8.02
2023-02-05T18:15:12.902Z,9.48
2023-02-05T18:17:42.732Z,7.68
2023-02-05T18:20:12.063Z,9.75
2023-02-05T18:22:40.436Z,7.95
2023-02-05T18:25:09.928Z,8.77
2023-02-05T18:27:38.695Z,8.80
2023-02-05T18:30:07.879Z,8.70
2023-02-05T18:32:36.144Z,10.93
2023-02-05T18:35:06.060Z,7.68
2023-02-05T18:37:37.324Z,8.18
2023-02-05T18:40:06.097Z,7.15
2023-02-05T18:42:34.456Z,12.73
2023-02-05T18:45:03.001Z,8.15
2023-02-05T18:47:31.511Z,8.73
2023-02-05T18:49:59.877Z,7.22
2023-02-05T18:52:31.193Z,7.30
2023-02-05T18:54:59.462Z,9.93
2023-02-05T18:57:27.787Z,8.50
2023-02-05T18:59:56.087Z,10.60
2023-02-05T19:02:24.413Z,8.98
2023-02-05T19:04:55.885Z,8.00
2023-02-05T19:07:25.131Z,10.43
2023-02-05T19:09:56.212Z,7.47
2023-02-05T19:12:24.349Z,7.47
2023-02-05T19:14:52.490Z,7.80
2023-02-05T19:17:20.673Z,9.70
2023-02-05T19:19:50.686Z,11.57
2023-02-05T19:22:18.959Z,9.02
2023-02-05T19:24:47.704Z,9.45
2023-02-05T19:27:18.168Z,8.93
2023-02-05T19:29:46.624Z,8.07
2023-02-05T19:32:14.792Z,8.93
2023-02-05T19:34:43.378Z,7.85
2023-02-05T19:37:12.409Z,7.35
2023-02-05T19:39:40.694Z,7.70
2023-02-05T19:42:08.898Z,8.60
2023-02-05T19:44:38.443Z,8.13
2023-02-05T19:47:08.000Z,8.10
2023-02-05T19:49:36.163Z,7.68
2023-02-05T19:52:05.460Z,6.57
2023-02-05T19:54:33.708Z,7.95
2023-02-05T19:57:02.788Z,8.32
2023-02-05T19:59:31.072Z,8.43
2023-02-05T20:02:00.701Z,8.50
2023-02-05T20:04:30.081Z,7.35
2023-02-05T20:07:00.122Z,9.10
2023-02-05T20:09:28.994Z,8.45
2023-02-05T20:11:57.289Z,7.40
2023-02-05T20:14:25.784Z,6.10
2023-02-05T20:16:54.098Z,7.43
2023-02-05T20:19:23.714Z,7.20
2023-02-05T20:21:52.497Z,9.13
2023-02-05T20:24:20.723Z,6.97
2023-02-05T20:26:49.092Z,7.55
2023-02-05T20:29:35.526Z,9.20
2023-02-05T20:32:03.761Z,7.82
2023-02-05T20:34:35.967Z,7.10
2023-02-05T20:37:06.092Z,7.70
2023-02-05T20:39:35.421Z,8.80
2023-02-05T20:42:03.881Z,7.07
2023-02-05T20:44:36.218Z,7.30
2023-02-05T20:47:04.949Z,8.13
2023-02-05T20:49:35.126Z,7.20
2023-02-05T20:52:03.857Z,7.82
2023-02-05T20:54:32.167Z,6.45
2023-02-05T20:57:00.516Z,6.63
2023-02-05T20:59:29.023Z,7.50
2023-02-05T21:01:57.369Z,6.55
2023-02-05T21:04:25.825Z,7.63
2023-02-05T21:06:55.522Z,5.95
2023-02-05T21:09:23.897Z,6.47
2023-02-05T21:11:55.371Z,6.53
2023-02-05T21:14:24.487Z,6.68
2023-02-05T21:16:52.689Z,7.70
2023-02-05T21:19:20.968Z,6.68
2023-02-05T21:21:50.234Z,7.68
2023-02-05T21:24:20.830Z,7.13
2023-02-05T21:26:50.277Z,6.70
2023-02-05T21:29:20.432Z,7.45
2023-02-05T21:31:50.587Z,6.72
2023-02-05T21:34:21.767Z,6.30
2023-02-05T21:36:50.129Z,6.07
2023-02-05T21:39:21.373Z,5.50
2023-02-05T21:41:50.661Z,6.47
2023-02-05T21:44:19.117Z,5.55
2023-02-05T21:46:47.345Z,6.35
2023-02-05T21:49:15.782Z,5.57
2023-02-05T21:51:44.098Z,6.70
2023-02-05T21:54:12.478Z,6.93
2023-02-05T21:56:44.092Z,6.13
2023-02-05T21:59:13.136Z,5.60
2023-02-05T22:01:42.434Z,7.20
2023-02-05T22:04:13.863Z,5.45
2023-02-05T22:06:42.767Z,5.40
2023-02-05T22:09:12.902Z,6.45
2023-02-05T22:11:43.224Z,7.00
2023-02-05T22:14:12.554Z,5.32
2023-02-05T22:16:41.247Z,6.20
2023-02-05T22:19:09.919Z,6.88
2023-02-05T22:21:40.165Z,5.55
2023-02-05T22:24:10.106Z,6.15
2023-02-05T22:26:41.486Z,7.57
2023-02-05T22:29:14.752Z,6.95
2023-02-05T22:31:44.415Z,5.10
2023-02-05T22:34:13.233Z,5.53
2023-02-05T22:36:41.463Z,5.55
2023-02-05T22:39:09.678Z,6.47
2023-02-05T22:41:39.831Z,5.47
2023-02-05T22:44:09.945Z,6.00
2023-02-05T22:46:42.741Z,5.22
2023-02-05T22:49:12.941Z,4.97
2023-02-05T22:51:41.956Z,5.15
2023-02-05T22:54:13.090Z,5.63
2023-02-05T22:56:41.314Z,4.70
2023-02-05T22:59:09.533Z,4.85
2023-02-05T23:01:40.132Z,5.80
2023-02-05T23:04:10.009Z,5.38
2023-02-05T23:06:40.522Z,7.10
2023-02-05T23:09:11.204Z,4.82
2023-02-05T23:11:39.476Z,6.15
2023-02-05T23:14:08.391Z,6.00
2023-02-05T23:16:39.122Z,4.47
2023-02-05T23:19:10.933Z,6.82
2023-02-05T23:21:40.218Z,5.65
2023-02-05T23:24:09.197Z,5.47
2023-02-05T23:26:40.187Z,5.88
2023-02-05T23:29:08.498Z,5.20
2023-02-05T23:31:37.097Z,5.13
2023-02-05T23:34:06.101Z,5.45
2023-02-05T23:36:35.726Z,5.40
2023-02-05T23:39:04.125Z,4.28
2023-02-05T23:41:40.046Z,5.07
2023-02-05T23:44:12.504Z,3.92
2023-02-05T23:46:41.634Z,4.80
2023-02-05T23:49:10.279Z,5.53
2023-02-05T23:51:40.218Z,4.00
2023-02-05T23:54:10.101Z,4.70
2023-02-05T23:56:38.698Z,4.05
2023-02-05T23:59:07.747Z,3.70
